Погода Праиа-до-Тофона 2 недели

Мапуту, Мозамбик

16 - 29 июля
  • 16июля
    Сегодня
    +20°
    +27°
    Небольшая облачность и лёгкий дождик
    ВремяПогодаТемператураВлажностьДавлениеВетер, м/сВероятность осадков
    02:00Практически безоблачно+21°C91 %765 мм1.3 м/с34 %
    05:00Практически безоблачно+21°C89 %765 мм0.9 м/с28 %
    08:00Практически безоблачно+23°C74 %765 мм1.3 м/с24 %
    11:00Небольшая облачность и лёгкий дождик+26°C64 %765 мм1.3 м/с61 %
    14:00Небольшая облачность и лёгкий дождик+26°C65 %764 мм2.0 м/с50 %
    17:00Ясно и безоблачно+25°C76 %764 мм2.2 м/с23 %
    20:00Практически безоблачно+23°C85 %764 мм1.4 м/с5 %
    23:00Ясно и безоблачно+22°C88 %765 мм0.9 м/с3 %
  • 17июля
    Среда
    +21°
    +29°
    Ясно и безоблачно
    ВремяПогодаТемператураВлажностьДавлениеВетер, м/сВероятность осадков
    02:00Ясно и безоблачно+21°C92 %764 мм0.8 м/с4 %
    05:00Ясно и безоблачно+21°C92 %764 мм0.8 м/с7 %
    08:00Ясно и безоблачно+22°C84 %766 мм0.7 м/с3 %
    11:00Ясно и безоблачно+27°C62 %766 мм2.0 м/с4 %
    14:00Ясно и безоблачно+28°C63 %764 мм3.3 м/с4 %
    17:00Ясно и безоблачно+25°C76 %764 мм3.4 м/с5 %
    20:00Ясно и безоблачно+24°C80 %765 мм2.3 м/с5 %
    23:00Ясно и безоблачно+23°C82 %766 мм1.6 м/с5 %
  • 18июля
    Четверг
    +19°
    +28°
    Ясно и безоблачно
    ВремяПогодаТемператураВлажностьДавлениеВетер, м/сВероятность осадков
    02:00Практически безоблачно+22°C86 %765 мм1.3 м/с5 %
    05:00Практически безоблачно+22°C86 %765 мм1.6 м/с5 %
    08:00Практически безоблачно+23°C78 %766 мм1.6 м/с5 %
    11:00Практически безоблачно+27°C62 %767 мм2.7 м/с5 %
    14:00Ясно и безоблачно+27°C61 %765 мм3.6 м/с5 %
    17:00Ясно и безоблачно+25°C71 %765 мм2.9 м/с5 %
    20:00Ясно и безоблачно+23°C76 %765 мм2.1 м/с5 %
    23:00Ясно и безоблачно+22°C83 %765 мм1.6 м/с5 %
  • 19июля
    Пятница
    +18°
    +28°
    Ясно и безоблачно
    ВремяПогодаТемператураВлажностьДавлениеВетер, м/сВероятность осадков
    02:00Ясно и безоблачно+20°C88 %764 мм0.9 м/с5 %
    05:00Ясно и безоблачно+20°C89 %764 мм1.0 м/с5 %
    08:00Ясно и безоблачно+21°C78 %765 мм0.9 м/с5 %
    11:00Ясно и безоблачно+27°C53 %764 мм2.3 м/с5 %
    14:00Ясно и безоблачно+28°C58 %763 мм3.0 м/с5 %
    17:00Ясно и безоблачно+25°C69 %763 мм2.6 м/с5 %
    20:00Ясно и безоблачно+23°C79 %764 мм2.0 м/с5 %
    23:00Ясно и безоблачно+22°C86 %764 мм1.4 м/с5 %
  • 20июля
    Суббота
    +19°
    +28°
    Облачно с прояснениями
    ВремяПогодаТемператураВлажностьДавлениеВетер, м/сВероятность осадков
    02:00Ясно и безоблачно+20°C90 %763 мм0.3 м/с5 %
    05:00Ясно и безоблачно+19°C93 %763 мм0.4 м/с5 %
    08:00Практически безоблачно+20°C87 %765 мм0.0 м/с5 %
    11:00Практически безоблачно+27°C63 %765 мм0.9 м/с5 %
    14:00Облачно с прояснениями+28°C60 %763 мм2.1 м/с5 %
    17:00Ясно и безоблачно+25°C72 %764 мм2.3 м/с4 %
    20:00Ясно и безоблачно+23°C80 %765 мм0.8 м/с10 %
    23:00Ясно и безоблачно+21°C83 %765 мм0.1 м/с16 %
Мы используем cookies
Соглашаюсь